Time;durP1;ratioP1;P1;durP2;ratioP2;P2;SDS_P1;SDS_P2;PMS_P1;PMS_P2;Temp;Humidity;BMP_temperature;BMP_pressure;BME280_temperature;BME280_humidity;BME280_pressure;Samples;Min_cycle;Max_cycle;Signal;HPM_P1;HPM_P2
2022/06/20 00:00:21;;;;;;;;;;;;;;;;;;4863263;29;20006;-88
2022/06/20 00:02:47;;;;;;;;;;;;;;;;;;4842313;29;19927;-87
2022/06/20 00:05:13;;;;;;;;;;;;;;;;;;4866290;29;19942;-87
2022/06/20 00:07:39;;;;;;;;;;;;;;;;;;4848150;29;19927;-87
2022/06/20 00:10:05;;;;;;;;;;;;;;;;;;4872302;29;19949;-87
2022/06/20 00:12:31;;;;;;;;;;;;;;;;;;4865449;29;19995;-87
2022/06/20 00:14:57;;;;;;;;;;;;;;;;;;4847273;29;19931;-87
2022/06/20 00:17:23;;;;;;;;;;;;;;;;;;4863809;29;20399;-87
2022/06/20 00:19:49;;;;;;;;;;;;;;;;;;4860847;29;20390;-87
2022/06/20 00:22:15;;;;;;;;;;;;;;;;;;4866007;29;19971;-87
2022/06/20 00:24:41;;;;;;;;;;;;;;;;;;4845732;29;19932;-87
2022/06/20 00:27:07;;;;;;;;;;;;;;;;;;4866590;29;19927;-87
2022/06/20 00:29:33;;;;;;;;;;;;;;;;;;4845199;29;19931;-87
2022/06/20 00:31:58;;;;;;;;;;;;;;;;;;4853272;29;20395;-87
2022/06/20 00:34:24;;;;;;;;;;;;;;;;;;4864782;29;20311;-87
2022/06/20 00:36:50;;;;;;;;;;;;;;;;;;4860564;29;20045;-87
2022/06/20 00:39:16;;;;;;;;;;;;;;;;;;4854431;29;19963;-86
2022/06/20 00:41:42;;;;;;;;;;;;;;;;;;4864244;29;19939;-87
2022/06/20 00:44:08;;;;;;;;;;;;;;;;;;4862752;29;19931;-84
2022/06/20 00:46:35;;;;;;;;;;;;;;;;;;4844687;29;19930;-85
2022/06/20 00:49:01;;;;;;;;;;;;;;;;;;4851023;29;20371;-84
2022/06/20 00:51:26;;;;;;;;;;;;;;;;;;4848949;29;19923;-86
2022/06/20 00:53:52;;;;;;;;;;;;;;;;;;4860096;29;20130;-86
2022/06/20 00:56:18;;;;;;;;;;;;;;;;;;4842339;29;20007;-86
2022/06/20 00:58:44;;;;;;;;;;;;;;;;;;4855773;29;19995;-86
2022/06/20 01:01:12;;;;;;;;;;;;;;;;;;4856425;29;20338;-86
2022/06/20 01:03:38;;;;;;;;;;;;;;;;;;4863068;29;19931;-86
2022/06/20 01:06:04;;;;;;;;;;;;;;;;;;4858723;29;19935;-86
2022/06/20 01:08:30;;;;;;;;;;;;;;;;;;4866350;29;19942;-86
2022/06/20 01:10:56;;;;;;;;;;;;;;;;;;4851548;29;19939;-86
2022/06/20 01:13:22;;;;;;;;;;;;;;;;;;4861151;29;19923;-86
2022/06/20 01:15:48;;;;;;;;;;;;;;;;;;4852468;29;19935;-86
2022/06/20 01:18:14;;;;;;;;;;;;;;;;;;4864399;29;19950;-86
2022/06/20 01:20:40;;;;;;;;;;;;;;;;;;4858987;29;19975;-86
2022/06/20 01:23:06;;;;;;;;;;;;;;;;;;4847384;29;20268;-86
2022/06/20 01:25:32;;;;;;;;;;;;;;;;;;4856894;29;20025;-86
2022/06/20 01:27:58;;;;;;;;;;;;;;;;;;4862609;29;20051;-86
2022/06/20 01:30:24;;;;;;;;;;;;;;;;;;4846184;29;20363;-86
2022/06/20 01:32:50;;;;;;;;;;;;;;;;;;4843536;29;19931;-86
2022/06/20 01:37:23;;;;;;;;;;;;;;;;;;4868335;29;19931;-85
2022/06/20 01:38:02;;;;;;;;;;;;;;;;;;4866089;29;19931;-86
2022/06/20 01:40:28;;;;;;;;;;;;;;;;;;4865594;29;19931;-86
2022/06/20 01:42:54;;;;;;;;;;;;;;;;;;4862271;29;19927;-86
2022/06/20 01:48:05;;;;;;;;;;;;;;;;;;4863455;29;19931;-86
2022/06/20 01:50:31;;;;;;;;;;;;;;;;;;4843252;29;19924;-86
2022/06/20 01:52:57;;;;;;;;;;;;;;;;;;4843323;29;19935;-86
2022/06/20 01:55:25;;;;;;;;;;;;;;;;;;4861009;29;19951;-86
2022/06/20 01:57:50;;;;;;;;;;;;;;;;;;4838758;29;21318;-86
2022/06/20 02:00:16;;;;;;;;;;;;;;;;;;4859623;29;20018;-86
2022/06/20 02:02:42;;;;;;;;;;;;;;;;;;4844298;29;19982;-86
2022/06/20 02:05:08;;;;;;;;;;;;;;;;;;4862098;29;19928;-86
2022/06/20 02:07:34;;;;;;;;;;;;;;;;;;4844682;29;19924;-87
2022/06/20 02:10:00;;;;;;;;;;;;;;;;;;4854497;29;19930;-86
2022/06/20 02:12:26;;;;;;;;;;;;;;;;;;4858219;29;19983;-86
2022/06/20 02:14:52;;;;;;;;;;;;;;;;;;4853410;29;20105;-86
2022/06/20 02:17:18;;;;;;;;;;;;;;;;;;4846799;29;21536;-86
2022/06/20 02:19:44;;;;;;;;;;;;;;;;;;4855802;29;19966;-86
2022/06/20 02:22:10;;;;;;;;;;;;;;;;;;4860506;29;19924;-86
2022/06/20 02:24:36;;;;;;;;;;;;;;;;;;4841517;29;19931;-86
2022/06/20 02:27:02;;;;;;;;;;;;;;;;;;4870556;29;19928;-86
2022/06/20 02:29:28;;;;;;;;;;;;;;;;;;4863004;29;19974;-86
2022/06/20 02:31:54;;;;;;;;;;;;;;;;;;4862794;29;20006;-86
2022/06/20 02:34:20;;;;;;;;;;;;;;;;;;4866148;29;19924;-86
2022/06/20 02:36:46;;;;;;;;;;;;;;;;;;4861969;29;22553;-86
2022/06/20 02:39:12;;;;;;;;;;;;;;;;;;4860219;29;19931;-86
2022/06/20 02:41:38;;;;;;;;;;;;;;;;;;4856297;29;19994;-85
2022/06/20 02:44:04;;;;;;;;;;;;;;;;;;4856868;29;19935;-85
2022/06/20 02:46:31;;;;;;;;;;;;;;;;;;4868169;29;19927;-86
2022/06/20 02:48:57;;;;;;;;;;;;;;;;;;4860353;29;19938;-86
2022/06/20 02:51:23;;;;;;;;;;;;;;;;;;4862942;29;19928;-86
2022/06/20 02:53:49;;;;;;;;;;;;;;;;;;4858283;29;20010;-86
2022/06/20 02:56:15;;;;;;;;;;;;;;;;;;4861246;29;19932;-86
2022/06/20 02:58:41;;;;;;;;;;;;;;;;;;4847023;29;19939;-86
2022/06/20 03:01:07;;;;;;;;;;;;;;;;;;4863138;29;19983;-86
2022/06/20 03:03:33;;;;;;;;;;;;;;;;;;4845795;29;20540;-86
2022/06/20 03:05:59;;;;;;;;;;;;;;;;;;4853587;29;19931;-85
2022/06/20 03:08:25;;;;;;;;;;;;;;;;;;4852535;29;19931;-85
2022/06/20 03:10:52;;;;;;;;;;;;;;;;;;4844297;29;20957;-86
2022/06/20 03:13:18;;;;;;;;;;;;;;;;;;4854850;29;20450;-86
2022/06/20 03:15:44;;;;;;;;;;;;;;;;;;4869466;29;19932;-86
2022/06/20 03:18:10;;;;;;;;;;;;;;;;;;4860558;29;19927;-86
2022/06/20 03:20:35;;;;;;;;;;;;;;;;;;4856767;29;19935;-86
2022/06/20 03:23:01;;;;;;;;;;;;;;;;;;4862061;29;19927;-86
2022/06/20 03:25:27;;;;;;;;;;;;;;;;;;4852167;29;19931;-86
2022/06/20 03:27:53;;;;;;;;;;;;;;;;;;4843333;29;19963;-86
2022/06/20 03:30:19;;;;;;;;;;;;;;;;;;4870765;29;19924;-86
2022/06/20 03:32:45;;;;;;;;;;;;;;;;;;4862568;29;20014;-86
2022/06/20 03:35:11;;;;;;;;;;;;;;;;;;4859152;29;19931;-86
2022/06/20 03:37:37;;;;;;;;;;;;;;;;;;4860011;29;19935;-86
2022/06/20 03:40:03;;;;;;;;;;;;;;;;;;4870568;29;19939;-86
2022/06/20 03:42:29;;;;;;;;;;;;;;;;;;4859736;29;19924;-86
2022/06/20 03:44:55;;;;;;;;;;;;;;;;;;4867955;29;19931;-86
2022/06/20 03:47:21;;;;;;;;;;;;;;;;;;4862616;29;19932;-86
2022/06/20 03:49:47;;;;;;;;;;;;;;;;;;4854371;29;19935;-86
2022/06/20 03:52:13;;;;;;;;;;;;;;;;;;4862231;29;19938;-86
2022/06/20 03:54:39;;;;;;;;;;;;;;;;;;4857054;29;19938;-86
2022/06/20 03:57:06;;;;;;;;;;;;;;;;;;4864576;29;19954;-86
2022/06/20 03:59:32;;;;;;;;;;;;;;;;;;4858855;29;19938;-85
2022/06/20 04:01:58;;;;;;;;;;;;;;;;;;4843258;29;19931;-86
2022/06/20 04:04:24;;;;;;;;;;;;;;;;;;4848421;29;19938;-86
2022/06/20 04:06:50;;;;;;;;;;;;;;;;;;4859160;29;19931;-86
2022/06/20 04:12:01;;;;;;;;;;;;;;;;;;4863596;29;19931;-86
2022/06/20 04:14:27;;;;;;;;;;;;;;;;;;4868755;29;19931;-86
2022/06/20 04:16:53;;;;;;;;;;;;;;;;;;4869984;29;19943;-86
2022/06/20 04:19:18;;;;;;;;;;;;;;;;;;4863453;29;19965;-86
2022/06/20 04:21:44;;;;;;;;;;;;;;;;;;4859418;29;19924;-86
2022/06/20 04:24:13;;;;;;;;;;;;;;;;;;4867147;29;20026;-86
2022/06/20 04:26:39;;;;;;;;;;;;;;;;;;4864185;29;20307;-86
2022/06/20 04:29:05;;;;;;;;;;;;;;;;;;4869071;29;19932;-85
2022/06/20 04:31:31;;;;;;;;;;;;;;;;;;4845309;29;19984;-86
2022/06/20 04:33:57;;;;;;;;;;;;;;;;;;4866587;29;20052;-86
2022/06/20 04:36:23;;;;;;;;;;;;;;;;;;4851762;29;19927;-86
2022/06/20 04:38:49;;;;;;;;;;;;;;;;;;4850443;29;19939;-86
2022/06/20 04:41:17;;;;;;;;;;;;;;;;;;4863765;29;20409;-86
2022/06/20 04:43:42;;;;;;;;;;;;;;;;;;4854674;29;19923;-86
2022/06/20 04:46:08;;;;;;;;;;;;;;;;;;4858361;29;19930;-86
2022/06/20 04:48:34;;;;;;;;;;;;;;;;;;4861132;29;19967;-87
2022/06/20 04:51:00;;;;;;;;;;;;;;;;;;4849677;29;19927;-86
2022/06/20 04:53:26;;;;;;;;;;;;;;;;;;4849910;29;19931;-87
2022/06/20 04:55:52;;;;;;;;;;;;;;;;;;4853989;29;20630;-86
2022/06/20 04:58:18;;;;;;;;;;;;;;;;;;4867059;29;19935;-86
2022/06/20 05:00:44;;;;;;;;;;;;;;;;;;4846824;29;19939;-86
2022/06/20 05:03:10;;;;;;;;;;;;;;;;;;4866960;29;19927;-86
2022/06/20 05:05:36;;;;;;;;;;;;;;;;;;4869079;29;19938;-86
2022/06/20 05:08:02;;;;;;;;;;;;;;;;;;4871387;29;21249;-86
2022/06/20 05:10:29;;;;;;;;;;;;;;;;;;4867673;29;19938;-85
2022/06/20 05:12:56;;;;;;;;;;;;;;;;;;4866718;29;19932;-86
2022/06/20 05:15:21;;;;;;;;;;;;;;;;;;4876272;29;19939;-86
2022/06/20 05:17:47;;;;;;;;;;;;;;;;;;4867063;29;19942;-86
2022/06/20 05:20:13;;;;;;;;;;;;;;;;;;4862271;29;20026;-86
2022/06/20 05:22:39;;;;;;;;;;;;;;;;;;4868054;29;20332;-86
2022/06/20 05:25:05;;;;;;;;;;;;;;;;;;4859218;29;20458;-86
2022/06/20 05:27:31;;;;;;;;;;;;;;;;;;4872522;29;20388;-86
2022/06/20 05:30:00;;;;;;;;;;;;;;;;;;4870650;29;20021;-86
2022/06/20 05:32:26;;;;;;;;;;;;;;;;;;4871013;29;20155;-86
2022/06/20 05:34:52;;;;;;;;;;;;;;;;;;4867161;29;19932;-85
2022/06/20 05:37:18;;;;;;;;;;;;;;;;;;4871079;29;19932;-85
2022/06/20 05:39:43;;;;;;;;;;;;;;;;;;4866559;29;19923;-86
2022/06/20 05:42:11;;;;;;;;;;;;;;;;;;4870789;29;19923;-85
2022/06/20 05:44:38;;;;;;;;;;;;;;;;;;4850805;29;19924;-85
2022/06/20 05:47:04;;;;;;;;;;;;;;;;;;4875682;29;20405;-86
2022/06/20 05:49:30;;;;;;;;;;;;;;;;;;4864612;29;19931;-85
2022/06/20 05:51:56;;;;;;;;;;;;;;;;;;4855687;29;19924;-85
2022/06/20 05:54:22;;;;;;;;;;;;;;;;;;4857093;29;19936;-85
2022/06/20 05:56:48;;;;;;;;;;;;;;;;;;4863628;29;20015;-85
2022/06/20 05:59:14;;;;;;;;;;;;;;;;;;4876603;29;19927;-85
2022/06/20 06:01:40;;;;;;;;;;;;;;;;;;4859176;29;19923;-85
2022/06/20 06:04:06;;;;;;;;;;;;;;;;;;4881770;29;19931;-85
2022/06/20 06:06:32;;;;;;;;;;;;;;;;;;4877007;29;19991;-85
2022/06/20 06:08:58;;;;;;;;;;;;;;;;;;4871410;29;20282;-85
2022/06/20 06:11:24;;;;;;;;;;;;;;;;;;4864393;29;19923;-86
2022/06/20 06:13:50;;;;;;;;;;;;;;;;;;4860725;29;20273;-85
2022/06/20 06:19:00;;;;;;;;;;;;;;;;;;4876797;29;20331;-85
2022/06/20 06:21:27;;;;;;;;;;;;;;;;;;4862078;29;19931;-85
2022/06/20 06:23:55;;;;;;;;;;;;;;;;;;4872254;29;19931;-86
2022/06/20 06:26:21;;;;;;;;;;;;;;;;;;4863915;29;20022;-86
2022/06/20 06:28:47;;;;;;;;;;;;;;;;;;4869352;29;19983;-86
2022/06/20 06:31:13;;;;;;;;;;;;;;;;;;4859516;29;19932;-86
2022/06/20 06:33:39;;;;;;;;;;;;;;;;;;4872995;29;19923;-86
2022/06/20 06:36:05;;;;;;;;;;;;;;;;;;4882786;29;19932;-86
2022/06/20 06:38:32;;;;;;;;;;;;;;;;;;4874551;29;19931;-85
2022/06/20 06:40:58;;;;;;;;;;;;;;;;;;4877797;29;19931;-85
2022/06/20 06:43:23;;;;;;;;;;;;;;;;;;4879876;29;19931;-85
2022/06/20 06:45:49;;;;;;;;;;;;;;;;;;4865164;29;19959;-86
2022/06/20 06:48:15;;;;;;;;;;;;;;;;;;4872672;29;19935;-86
2022/06/20 06:50:41;;;;;;;;;;;;;;;;;;4862309;29;19923;-86
2022/06/20 06:53:07;;;;;;;;;;;;;;;;;;4860940;29;20025;-86
2022/06/20 06:55:35;;;;;;;;;;;;;;;;;;4874009;29;19932;-86
2022/06/20 06:58:01;;;;;;;;;;;;;;;;;;4883359;29;20116;-86
2022/06/20 07:00:27;;;;;;;;;;;;;;;;;;4859108;29;19943;-87
2022/06/20 07:02:53;;;;;;;;;;;;;;;;;;4867547;29;19931;-87
2022/06/20 07:05:19;;;;;;;;;;;;;;;;;;4858196;29;19924;-86
2022/06/20 07:07:45;;;;;;;;;;;;;;;;;;4881625;29;19923;-86
2022/06/20 07:10:11;;;;;;;;;;;;;;;;;;4858991;29;19923;-87
2022/06/20 07:12:37;;;;;;;;;;;;;;;;;;4865851;29;19935;-86
2022/06/20 07:15:06;;;;;;;;;;;;;;;;;;4875169;29;20367;-86
2022/06/20 07:17:32;;;;;;;;;;;;;;;;;;4853674;29;22049;-85
2022/06/20 07:19:58;;;;;;;;;;;;;;;;;;4875062;29;19931;-85
2022/06/20 07:22:24;;;;;;;;;;;;;;;;;;4867170;29;19924;-85
2022/06/20 07:24:50;;;;;;;;;;;;;;;;;;4854252;29;20018;-85
2022/06/20 07:27:16;;;;;;;;;;;;;;;;;;4860424;29;20378;-85
2022/06/20 07:29:43;;;;;;;;;;;;;;;;;;4865212;29;19987;-85
2022/06/20 07:32:12;;;;;;;;;;;;;;;;;;4874480;29;19928;-85
2022/06/20 07:34:38;;;;;;;;;;;;;;;;;;4868559;29;19939;-85
2022/06/20 07:37:07;;;;;;;;;;;;;;;;;;4858549;29;20390;-85
2022/06/20 07:39:42;;;;;;;;;;;;;;;;;;4870585;29;19931;-85
2022/06/20 07:42:11;;;;;;;;;;;;;;;;;;4871125;29;20361;-84
2022/06/20 07:55:59;;;;;;;;;;;;;;;;;;5122530;23;19936;-87
2022/06/20 07:58:25;;;;;;;;;;;;;;;;;;4855241;29;20030;-87
2022/06/20 08:00:51;;;;;;;;;;;;;;;;;;4850255;29;21094;-87
2022/06/20 08:03:17;;;;;;;;;;;;;;;;;;4857295;29;19928;-87
2022/06/20 08:05:42;;;;;;;;;;;;;;;;;;4851686;29;20356;-87
2022/06/20 08:08:08;;;;;;;;;;;;;;;;;;4859271;29;20417;-87
2022/06/20 08:10:34;;;;;;;;;;;;;;;;;;4854676;29;20120;-87
2022/06/20 08:13:00;;;;;;;;;;;;;;;;;;4859409;29;19931;-87
2022/06/20 08:15:26;;;;;;;;;;;;;;;;;;4855355;29;19955;-87
2022/06/20 08:17:52;;;;;;;;;;;;;;;;;;4855014;29;19936;-87
2022/06/20 08:20:18;;;;;;;;;;;;;;;;;;4838569;29;19928;-87
2022/06/20 08:22:47;;;;;;;;;;;;;;;;;;4830779;29;19923;-87
2022/06/20 08:25:13;;;;;;;;;;;;;;;;;;4826418;29;19928;-87
2022/06/20 08:27:39;;;;;;;;;;;;;;;;;;4822467;29;20929;-87
2022/06/20 08:30:05;;;;;;;;;;;;;;;;;;4837085;29;20442;-87
2022/06/20 08:32:31;;;;;;;;;;;;;;;;;;4822869;29;19932;-87
2022/06/20 08:34:57;;;;;;;;;;;;;;;;;;4836674;29;20573;-87
2022/06/20 08:37:23;;;;;;;;;;;;;;;;;;4840561;29;20076;-87
2022/06/20 08:39:49;;;;;;;;;;;;;;;;;;4835568;29;19924;-87
2022/06/20 08:42:15;;;;;;;;;;;;;;;;;;4842488;29;19932;-87
2022/06/20 08:44:41;;;;;;;;;;;;;;;;;;4836658;29;19944;-87
2022/06/20 08:47:07;;;;;;;;;;;;;;;;;;4839235;29;20388;-86
2022/06/20 08:49:33;;;;;;;;;;;;;;;;;;4836357;29;20002;-87
2022/06/20 08:52:09;;;;;;;;;;;;;;;;;;4824483;29;19924;-87
2022/06/20 08:54:35;;;;;;;;;;;;;;;;;;4848669;29;20015;-87
2022/06/20 08:57:01;;;;;;;;;;;;;;;;;;4838053;29;19936;-87
2022/06/20 08:59:27;;;;;;;;;;;;;;;;;;4843942;29;19924;-87
2022/06/20 09:01:53;;;;;;;;;;;;;;;;;;4841524;29;19932;-87
2022/06/20 09:04:19;;;;;;;;;;;;;;;;;;4842844;29;19943;-87
2022/06/20 09:06:45;;;;;;;;;;;;;;;;;;4837376;29;19933;-87
2022/06/20 09:09:11;;;;;;;;;;;;;;;;;;4837292;29;19924;-87
2022/06/20 09:11:37;;;;;;;;;;;;;;;;;;4836249;29;19928;-88
2022/06/20 09:14:03;;;;;;;;;;;;;;;;;;4845094;29;19924;-88
2022/06/20 09:16:29;;;;;;;;;;;;;;;;;;4827710;29;19963;-88
2022/06/20 09:18:55;;;;;;;;;;;;;;;;;;4839665;29;19935;-88
2022/06/20 09:21:21;;;;;;;;;;;;;;;;;;4843653;29;19932;-88
2022/06/20 09:23:47;;;;;;;;;;;;;;;;;;4836447;29;19924;-87
2022/06/20 09:26:13;;;;;;;;;;;;;;;;;;4842194;29;19939;-87
2022/06/20 09:28:39;;;;;;;;;;;;;;;;;;4838739;29;20306;-87
2022/06/20 09:31:04;;;;;;;;;;;;;;;;;;4841310;29;20328;-87
2022/06/20 09:33:30;;;;;;;;;;;;;;;;;;4835121;29;20401;-87
2022/06/20 09:36:02;;;;;;;;;;;;;;;;;;4835892;29;20300;-88
2022/06/20 09:38:29;;;;;;;;;;;;;;;;;;4845691;29;20307;-88
2022/06/20 09:40:55;;;;;;;;;;;;;;;;;;4839008;29;20329;-87
2022/06/20 09:43:21;;;;;;;;;;;;;;;;;;4828810;29;19928;-87
2022/06/20 09:45:47;;;;;;;;;;;;;;;;;;4838553;29;20074;-87
2022/06/20 09:48:13;;;;;;;;;;;;;;;;;;4838889;29;19928;-88
2022/06/20 09:50:39;;;;;;;;;;;;;;;;;;4835024;29;19927;-87
2022/06/20 09:53:05;;;;;;;;;;;;;;;;;;4837561;29;19947;-87
2022/06/20 09:55:31;;;;;;;;;;;;;;;;;;4838043;29;19946;-87
2022/06/20 09:57:57;;;;;;;;;;;;;;;;;;4835107;29;19931;-88
2022/06/20 10:00:23;;;;;;;;;;;;;;;;;;4839725;29;19932;-88
2022/06/20 10:02:49;;;;;;;;;;;;;;;;;;4818443;29;20011;-88
2022/06/20 10:05:15;;;;;;;;;;;;;;;;;;4841231;29;20022;-88
2022/06/20 10:07:41;;;;;;;;;;;;;;;;;;4838708;29;19928;-88
2022/06/20 10:10:07;;;;;;;;;;;;;;;;;;4856654;29;20369;-88
2022/06/20 10:12:32;;;;;;;;;;;;;;;;;;4835591;29;20384;-88
2022/06/20 10:15:02;;;;;;;;;;;;;;;;;;4839947;29;20429;-88
2022/06/20 10:17:30;;;;;;;;;;;;;;;;;;4840457;29;20482;-87
2022/06/20 10:19:56;;;;;;;;;;;;;;;;;;4823814;29;19932;-88
2022/06/20 10:22:22;;;;;;;;;;;;;;;;;;4838125;29;20304;-88
2022/06/20 10:24:48;;;;;;;;;;;;;;;;;;4821147;29;20379;-88
2022/06/20 10:27:14;;;;;;;;;;;;;;;;;;4837649;29;19988;-89
2022/06/20 10:29:40;;;;;;;;;;;;;;;;;;4831681;29;19928;-88
2022/06/20 10:32:06;;;;;;;;;;;;;;;;;;4838087;29;20022;-88
2022/06/20 10:34:32;;;;;;;;;;;;;;;;;;4837062;29;20390;-88
2022/06/20 10:37:00;;;;;;;;;;;;;;;;;;4836356;29;20349;-87
2022/06/20 10:39:26;;;;;;;;;;;;;;;;;;4834104;29;19924;-88
2022/06/20 10:41:52;;;;;;;;;;;;;;;;;;4830047;29;22472;-87
2022/06/20 10:44:18;;;;;;;;;;;;;;;;;;4840380;29;19959;-87
2022/06/20 10:46:44;;;;;;;;;;;;;;;;;;4833372;29;19947;-87
2022/06/20 10:49:10;;;;;;;;;;;;;;;;;;4840493;29;19932;-87
2022/06/20 10:51:36;;;;;;;;;;;;;;;;;;4837745;29;19928;-88
2022/06/20 10:54:02;;;;;;;;;;;;;;;;;;4822828;29;19928;-89
2022/06/20 10:56:28;;;;;;;;;;;;;;;;;;4839472;29;20015;-88
2022/06/20 10:58:54;;;;;;;;;;;;;;;;;;4827005;29;19936;-88
2022/06/20 11:01:20;;;;;;;;;;;;;;;;;;4836834;29;19928;-88
2022/06/20 11:03:46;;;;;;;;;;;;;;;;;;4842431;29;19934;-88
2022/06/20 11:06:12;;;;;;;;;;;;;;;;;;4844393;29;19959;-88
2022/06/20 11:08:38;;;;;;;;;;;;;;;;;;4834320;29;19928;-89
2022/06/20 11:11:04;;;;;;;;;;;;;;;;;;4841995;29;19929;-88
2022/06/20 11:13:29;;;;;;;;;;;;;;;;;;4844990;29;19978;-88
2022/06/20 11:15:55;;;;;;;;;;;;;;;;;;4841428;29;19932;-88
2022/06/20 11:18:21;;;;;;;;;;;;;;;;;;4841901;29;20313;-89
2022/06/20 11:20:47;;;;;;;;;;;;;;;;;;4829976;29;20360;-88
2022/06/20 11:23:13;;;;;;;;;;;;;;;;;;4842599;29;20360;-88
2022/06/20 11:25:39;;;;;;;;;;;;;;;;;;4830118;29;20027;-89
2022/06/20 11:28:05;;;;;;;;;;;;;;;;;;4844474;29;20033;-89
2022/06/20 11:30:31;;;;;;;;;;;;;;;;;;4830606;29;19928;-88
2022/06/20 11:32:57;;;;;;;;;;;;;;;;;;4828955;29;19924;-83
2022/06/20 11:35:24;;;;;;;;;;;;;;;;;;4826435;29;20023;-84
2022/06/20 11:37:50;;;;;;;;;;;;;;;;;;4818236;29;19940;-84
2022/06/20 11:40:16;;;;;;;;;;;;;;;;;;4822176;29;19968;-84
2022/06/20 11:42:42;;;;;;;;;;;;;;;;;;4840668;29;19950;-84
2022/06/20 11:45:08;;;;;;;;;;;;;;;;;;4842966;29;19932;-84
2022/06/20 11:47:34;;;;;;;;;;;;;;;;;;4821757;29;19989;-84
2022/06/20 11:50:00;;;;;;;;;;;;;;;;;;4837773;29;19935;-84
2022/06/20 11:52:25;;;;;;;;;;;;;;;;;;4842043;29;19928;-84
2022/06/20 11:54:51;;;;;;;;;;;;;;;;;;4827882;29;19932;-83
2022/06/20 11:57:17;;;;;;;;;;;;;;;;;;4849899;29;19976;-84
2022/06/20 11:59:43;;;;;;;;;;;;;;;;;;4838982;29;20015;-84
2022/06/20 12:02:09;;;;;;;;;;;;;;;;;;4842255;29;20380;-84
2022/06/20 12:04:36;;;;;;;;;;;;;;;;;;4835848;29;19976;-84
2022/06/20 12:07:02;;;;;;;;;;;;;;;;;;4841025;29;19928;-84
2022/06/20 12:09:28;;;;;;;;;;;;;;;;;;4844348;29;20393;-84
2022/06/20 12:11:54;;;;;;;;;;;;;;;;;;4838470;29;19999;-84
2022/06/20 12:14:23;;;;;;;;;;;;;;;;;;4835146;29;19967;-84
2022/06/20 12:16:49;;;;;;;;;;;;;;;;;;4818808;29;19935;-84
2022/06/20 12:24:45;;;;;;;;;;;;;;;;;;4839029;29;19924;-84
2022/06/20 12:27:11;;;;;;;;;;;;;;;;;;4844479;29;19930;-84
2022/06/20 12:29:37;;;;;;;;;;;;;;;;;;4837759;29;19928;-84
2022/06/20 12:32:02;;;;;;;;;;;;;;;;;;4843476;29;19936;-83
2022/06/20 12:34:28;;;;;;;;;;;;;;;;;;4837922;29;20233;-84
2022/06/20 12:36:55;;;;;;;;;;;;;;;;;;4837261;29;19939;-84
2022/06/20 12:39:21;;;;;;;;;;;;;;;;;;4827673;29;19970;-83
2022/06/20 12:41:47;;;;;;;;;;;;;;;;;;4837368;29;19976;-84
2022/06/20 12:44:13;;;;;;;;;;;;;;;;;;4840531;29;19928;-84
2022/06/20 12:46:39;;;;;;;;;;;;;;;;;;4851149;29;19932;-84
2022/06/20 12:49:05;;;;;;;;;;;;;;;;;;4842878;29;19928;-84
2022/06/20 12:51:31;;;;;;;;;;;;;;;;;;4838463;29;20413;-84
2022/06/20 12:53:57;;;;;;;;;;;;;;;;;;4841324;29;20399;-84
2022/06/20 12:56:23;;;;;;;;;;;;;;;;;;4842661;29;19928;-84
2022/06/20 12:58:49;;;;;;;;;;;;;;;;;;4843047;29;20299;-83
2022/06/20 13:01:15;;;;;;;;;;;;;;;;;;4843542;29;20014;-83
2022/06/20 13:03:41;;;;;;;;;;;;;;;;;;4838561;29;20391;-83
2022/06/20 13:06:07;;;;;;;;;;;;;;;;;;4843657;29;19954;-83
2022/06/20 13:08:33;;;;;;;;;;;;;;;;;;4836602;29;20340;-84
2022/06/20 13:10:59;;;;;;;;;;;;;;;;;;4843137;29;20019;-85
2022/06/20 13:13:26;;;;;;;;;;;;;;;;;;4837917;29;19928;-83
2022/06/20 13:15:52;;;;;;;;;;;;;;;;;;4834207;29;20607;-83
2022/06/20 13:18:18;;;;;;;;;;;;;;;;;;4836151;29;19940;-83
2022/06/20 13:20:44;;;;;;;;;;;;;;;;;;4833606;29;20409;-83
2022/06/20 13:23:11;;;;;;;;;;;;;;;;;;4839595;29;20023;-83
2022/06/20 13:25:37;;;;;;;;;;;;;;;;;;4838340;29;19988;-83
2022/06/20 13:28:03;;;;;;;;;;;;;;;;;;4840687;29;20003;-83
2022/06/20 13:30:29;;;;;;;;;;;;;;;;;;4841952;29;19943;-83
2022/06/20 13:32:55;;;;;;;;;;;;;;;;;;4836404;29;20315;-83
2022/06/20 13:35:20;;;;;;;;;;;;;;;;;;4841641;29;20401;-83
2022/06/20 13:37:46;;;;;;;;;;;;;;;;;;4838892;29;19941;-83
2022/06/20 13:40:12;;;;;;;;;;;;;;;;;;4844717;29;19924;-82
2022/06/20 13:42:38;;;;;;;;;;;;;;;;;;4842149;29;19931;-83
2022/06/20 13:45:08;;;;;;;;;;;;;;;;;;4842364;29;19931;-83
2022/06/20 13:47:34;;;;;;;;;;;;;;;;;;4839158;29;20014;-84
2022/06/20 13:50:02;;;;;;;;;;;;;;;;;;4837172;29;19928;-82
2022/06/20 13:52:29;;;;;;;;;;;;;;;;;;4834000;29;20018;-83
2022/06/20 13:54:56;;;;;;;;;;;;;;;;;;4834835;29;20436;-82
2022/06/20 13:57:23;;;;;;;;;;;;;;;;;;4835562;29;20400;-83
2022/06/20 13:59:51;;;;;;;;;;;;;;;;;;4835807;29;20368;-82
2022/06/20 14:02:17;;;;;;;;;;;;;;;;;;4837124;29;19942;-83
2022/06/20 14:04:43;;;;;;;;;;;;;;;;;;4834633;29;19932;-83
2022/06/20 14:07:10;;;;;;;;;;;;;;;;;;4837770;29;20034;-84
2022/06/20 14:09:38;;;;;;;;;;;;;;;;;;4834070;29;20537;-83
2022/06/20 14:12:05;;;;;;;;;;;;;;;;;;4851833;29;19935;-83
2022/06/20 14:14:35;;;;;;;;;;;;;;;;;;4837218;29;19992;-83
2022/06/20 14:17:03;;;;;;;;;;;;;;;;;;4837403;29;19935;-83
2022/06/20 14:19:33;;;;;;;;;;;;;;;;;;4840681;29;20039;-83
2022/06/20 14:22:00;;;;;;;;;;;;;;;;;;4843624;29;20048;-83
2022/06/20 14:24:28;;;;;;;;;;;;;;;;;;4828957;29;19932;-83
2022/06/20 14:26:55;;;;;;;;;;;;;;;;;;4834265;29;20379;-83
2022/06/20 14:29:21;;;;;;;;;;;;;;;;;;4833543;29;19932;-83
2022/06/20 14:31:47;;;;;;;;;;;;;;;;;;4829606;29;20788;-83
2022/06/20 14:34:13;;;;;;;;;;;;;;;;;;4848451;29;20011;-83
2022/06/20 14:36:38;;;;;;;;;;;;;;;;;;4832690;29;19968;-83
2022/06/20 14:39:04;;;;;;;;;;;;;;;;;;4834498;29;19936;-83
2022/06/20 14:41:39;;;;;;;;;;;;;;;;;;4836803;29;19930;-83
2022/06/20 14:44:08;;;;;;;;;;;;;;;;;;4834702;29;20440;-83
2022/06/20 14:46:34;;;;;;;;;;;;;;;;;;4834031;29;20438;-83
2022/06/20 14:49:00;;;;;;;;;;;;;;;;;;4834496;29;19934;-83
2022/06/20 14:51:26;;;;;;;;;;;;;;;;;;4837622;29;19931;-83
2022/06/20 14:53:52;;;;;;;;;;;;;;;;;;4831044;29;21596;-83
2022/06/20 14:56:19;;;;;;;;;;;;;;;;;;4833480;29;20408;-83
2022/06/20 14:58:46;;;;;;;;;;;;;;;;;;4832387;29;19932;-82
2022/06/20 15:01:12;;;;;;;;;;;;;;;;;;4838049;29;19928;-83
2022/06/20 15:03:38;;;;;;;;;;;;;;;;;;4831001;29;19932;-82
2022/06/20 15:06:05;;;;;;;;;;;;;;;;;;4824188;29;19934;-83
2022/06/20 15:08:31;;;;;;;;;;;;;;;;;;4837215;29;20055;-83
2022/06/20 15:10:57;;;;;;;;;;;;;;;;;;4855322;29;20010;-83
2022/06/20 15:13:23;;;;;;;;;;;;;;;;;;4834970;29;20399;-83
2022/06/20 15:15:49;;;;;;;;;;;;;;;;;;4815280;29;19932;-83
2022/06/20 15:18:15;;;;;;;;;;;;;;;;;;4840186;29;19944;-83
2022/06/20 15:20:41;;;;;;;;;;;;;;;;;;4830119;29;19928;-83
2022/06/20 15:23:07;;;;;;;;;;;;;;;;;;4835418;29;19924;-83
2022/06/20 15:25:33;;;;;;;;;;;;;;;;;;4837143;29;20394;-83
2022/06/20 15:27:59;;;;;;;;;;;;;;;;;;4833447;29;19936;-84
2022/06/20 15:30:25;;;;;;;;;;;;;;;;;;4831740;29;20209;-83
2022/06/20 15:32:51;;;;;;;;;;;;;;;;;;4825489;29;19948;-83
2022/06/20 15:37:55;;;;;;;;;;;;;;;;;;4830986;29;19955;-83
2022/06/20 15:40:21;;;;;;;;;;;;;;;;;;4821816;29;20946;-83
2022/06/20 15:42:47;;;;;;;;;;;;;;;;;;4832885;29;19939;-83
2022/06/20 15:45:13;;;;;;;;;;;;;;;;;;4833933;29;20028;-83
2022/06/20 15:47:39;;;;;;;;;;;;;;;;;;4831186;29;19932;-83
2022/06/20 15:50:05;;;;;;;;;;;;;;;;;;4835022;29;20400;-83
2022/06/20 15:52:31;;;;;;;;;;;;;;;;;;4832374;29;20364;-83
2022/06/20 15:54:57;;;;;;;;;;;;;;;;;;4828220;29;19943;-83
2022/06/20 15:57:23;;;;;;;;;;;;;;;;;;4828689;29;19943;-83
2022/06/20 15:59:49;;;;;;;;;;;;;;;;;;4826250;29;19932;-83
2022/06/20 16:02:15;;;;;;;;;;;;;;;;;;4828108;29;19932;-83
2022/06/20 16:04:42;;;;;;;;;;;;;;;;;;4825669;29;20071;-83
2022/06/20 16:07:07;;;;;;;;;;;;;;;;;;4842609;29;20015;-83
2022/06/20 16:09:33;;;;;;;;;;;;;;;;;;4828168;29;20407;-83
2022/06/20 16:11:59;;;;;;;;;;;;;;;;;;4830591;29;20669;-83
2022/06/20 16:14:25;;;;;;;;;;;;;;;;;;4815304;29;19928;-83
2022/06/20 16:16:51;;;;;;;;;;;;;;;;;;4825107;29;20005;-83
2022/06/20 16:19:17;;;;;;;;;;;;;;;;;;4819229;29;19928;-82
2022/06/20 16:21:43;;;;;;;;;;;;;;;;;;4825746;29;19928;-82
2022/06/20 16:24:10;;;;;;;;;;;;;;;;;;4831042;29;19964;-82
2022/06/20 16:26:36;;;;;;;;;;;;;;;;;;4824591;29;19929;-83
2022/06/20 16:29:02;;;;;;;;;;;;;;;;;;4828921;29;19931;-83
2022/06/20 16:31:29;;;;;;;;;;;;;;;;;;4842959;29;19942;-83
2022/06/20 16:33:55;;;;;;;;;;;;;;;;;;4827403;29;19931;-83
2022/06/20 16:36:21;;;;;;;;;;;;;;;;;;4832562;29;19928;-82
2022/06/20 16:38:47;;;;;;;;;;;;;;;;;;4815294;29;20307;-83
2022/06/20 16:41:13;;;;;;;;;;;;;;;;;;4831018;29;19979;-83
2022/06/20 16:43:39;;;;;;;;;;;;;;;;;;4828603;29;20946;-81
2022/06/20 16:46:05;;;;;;;;;;;;;;;;;;4817603;29;20664;-82
2022/06/20 16:48:31;;;;;;;;;;;;;;;;;;4815073;29;21682;-82
2022/06/20 16:50:57;;;;;;;;;;;;;;;;;;4833521;29;19924;-83
2022/06/20 16:53:23;;;;;;;;;;;;;;;;;;4834135;29;19942;-83
2022/06/20 16:55:49;;;;;;;;;;;;;;;;;;4827569;29;19933;-83
2022/06/20 16:58:15;;;;;;;;;;;;;;;;;;4834354;29;19936;-82
2022/06/20 17:00:41;;;;;;;;;;;;;;;;;;4831734;29;19990;-82
2022/06/20 17:03:06;;;;;;;;;;;;;;;;;;4838320;29;20245;-82
2022/06/20 17:05:33;;;;;;;;;;;;;;;;;;4832888;29;19932;-82